Time;durP1;ratioP1;P1;durP2;ratioP2;P2;SDS_P1;SDS_P2;PMS_P1;PMS_P2;Temp;Humidity;BMP_temperature;BMP_pressure;BME280_temperature;BME280_humidity;BME280_pressure;Samples;Min_cycle;Max_cycle;Signal;HPM_P1;HPM_P2
2022/04/24 00:00:22;;;;;;;;;;;;;;;8.95;51.71;100654.22;5038960;28;19939;-70
2022/04/24 00:02:47;;;;;;;;;;;;;;;8.98;51.69;100647.97;5041070;28;19921;-70
2022/04/24 00:05:12;;;;;;;;;;;;;;;8.98;51.77;100647.97;5042296;28;19920;-70
2022/04/24 00:07:38;;;;;;;;;;;;;;;8.89;52.18;100648.44;5041776;28;19928;-70
2022/04/24 00:10:04;;;;;;;;;;;;;;;8.85;52.32;100648.59;5040157;28;19928;-70
2022/04/24 00:12:29;;;;;;;;;;;;;;;8.83;52.29;100649.59;5034747;28;19968;-69
2022/04/24 00:14:54;;;;;;;;;;;;;;;8.79;52.43;100650.69;5021766;28;19925;-70
2022/04/24 00:17:20;;;;;;;;;;;;;;;8.73;52.72;100646.59;5023451;28;19928;-70
2022/04/24 00:19:46;;;;;;;;;;;;;;;8.73;52.22;100635.28;5024612;28;19922;-70
2022/04/24 00:22:12;;;;;;;;;;;;;;;8.75;52.44;100644.75;5038065;28;19920;-70
2022/04/24 00:24:37;;;;;;;;;;;;;;;8.73;52.50;100632.66;5037645;28;20365;-70
2022/04/24 00:27:02;;;;;;;;;;;;;;;8.67;52.78;100623.34;5041503;28;20332;-70
2022/04/24 00:29:28;;;;;;;;;;;;;;;8.69;52.45;100634.59;5039823;28;21059;-70
2022/04/24 00:31:53;;;;;;;;;;;;;;;8.62;52.87;100635.81;5040058;28;19941;-70
2022/04/24 00:34:18;;;;;;;;;;;;;;;8.54;52.96;100628.34;5038792;28;19921;-70
2022/04/24 00:36:45;;;;;;;;;;;;;;;8.57;53.11;100636.06;5040559;28;19924;-70
2022/04/24 00:39:11;;;;;;;;;;;;;;;8.66;52.64;100627.72;5038828;28;19947;-70
2022/04/24 00:41:43;;;;;;;;;;;;;;;8.75;52.85;100623.78;5035591;28;19917;-70
2022/04/24 00:44:08;;;;;;;;;;;;;;;8.76;52.90;100622.00;5039191;28;20442;-70
2022/04/24 00:46:41;;;;;;;;;;;;;;;8.69;53.07;100621.47;5023032;28;19917;-70
2022/04/24 00:49:11;;;;;;;;;;;;;;;8.62;54.43;100620.09;5040706;28;20316;-70
2022/04/24 00:51:40;;;;;;;;;;;;;;;8.50;53.97;100617.19;5040188;28;19925;-69
2022/04/24 00:54:06;;;;;;;;;;;;;;;8.42;54.29;100610.59;5039398;28;20018;-70
2022/04/24 00:56:32;;;;;;;;;;;;;;;8.26;54.76;100618.38;5023866;28;20324;-70
2022/04/24 00:59:02;;;;;;;;;;;;;;;8.20;54.70;100607.28;5039595;28;19924;-71
2022/04/24 01:01:27;;;;;;;;;;;;;;;8.19;55.07;100608.22;5022939;28;20019;-70
2022/04/24 01:03:54;;;;;;;;;;;;;;;8.12;55.18;100606.81;5022244;28;19928;-70
2022/04/24 01:06:19;;;;;;;;;;;;;;;8.05;55.96;100602.81;5022717;28;19967;-70
2022/04/24 01:08:44;;;;;;;;;;;;;;;8.01;55.99;100609.09;5035605;28;19922;-70
2022/04/24 01:11:10;;;;;;;;;;;;;;;7.96;56.22;100598.84;5039726;28;19921;-70
2022/04/24 01:13:35;;;;;;;;;;;;;;;7.92;56.55;100600.78;5037143;28;19921;-70
2022/04/24 01:16:00;;;;;;;;;;;;;;;7.96;56.30;100596.25;5036670;28;19924;-70
2022/04/24 01:18:26;;;;;;;;;;;;;;;7.94;56.62;100588.44;5041077;28;19920;-69
2022/04/24 01:20:52;;;;;;;;;;;;;;;7.97;56.33;100602.31;5037242;28;19923;-69
2022/04/24 01:23:17;;;;;;;;;;;;;;;8.04;56.91;100598.47;5037626;28;20391;-69
2022/04/24 01:25:42;;;;;;;;;;;;;;;8.12;56.45;100596.31;5039272;28;19924;-69
2022/04/24 01:28:08;;;;;;;;;;;;;;;8.11;56.54;100599.84;5038024;28;20561;-69
2022/04/24 01:30:34;;;;;;;;;;;;;;;8.12;56.70;100596.31;5039395;28;19920;-70
2022/04/24 01:32:59;;;;;;;;;;;;;;;8.16;56.51;100597.03;5039718;28;19924;-69
2022/04/24 01:35:25;;;;;;;;;;;;;;;8.16;56.36;100591.78;5039861;28;19920;-69
2022/04/24 01:37:50;;;;;;;;;;;;;;;8.16;56.44;100589.16;5040848;28;19932;-70
2022/04/24 01:40:15;;;;;;;;;;;;;;;8.19;56.56;100591.63;5035138;28;19920;-69
2022/04/24 01:42:41;;;;;;;;;;;;;;;8.21;56.84;100587.16;5037493;28;20639;-69
2022/04/24 01:45:06;;;;;;;;;;;;;;;8.23;57.21;100593.16;5025645;28;19921;-70
2022/04/24 01:47:32;;;;;;;;;;;;;;;8.30;56.61;100588.47;5041763;28;20732;-69
2022/04/24 01:49:57;;;;;;;;;;;;;;;8.36;56.23;100585.53;5039239;28;19924;-69
2022/04/24 01:52:22;;;;;;;;;;;;;;;8.44;56.34;100590.38;5040590;28;19920;-69
2022/04/24 01:54:48;;;;;;;;;;;;;;;8.49;55.98;100580.53;5035474;28;20278;-69
2022/04/24 01:57:13;;;;;;;;;;;;;;;8.54;56.16;100591.63;5039164;28;20427;-69
2022/04/24 01:59:38;;;;;;;;;;;;;;;8.53;56.73;100580.31;5037374;28;20294;-70
2022/04/24 02:02:04;;;;;;;;;;;;;;;8.47;56.97;100583.22;5040160;28;19916;-70
2022/04/24 02:04:29;;;;;;;;;;;;;;;8.40;56.51;100581.81;5036143;28;20381;-69
2022/04/24 02:06:54;;;;;;;;;;;;;;;8.36;56.60;100585.53;5039687;28;19960;-69
2022/04/24 02:09:20;;;;;;;;;;;;;;;8.39;56.55;100578.34;5037342;28;19924;-69
2022/04/24 02:11:45;;;;;;;;;;;;;;;8.47;56.46;100580.59;5042081;28;20378;-70
2022/04/24 02:14:10;;;;;;;;;;;;;;;8.53;56.38;100577.69;5026044;28;19923;-69
2022/04/24 02:16:35;;;;;;;;;;;;;;;8.61;56.47;100576.44;5023454;28;20293;-69
2022/04/24 02:19:01;;;;;;;;;;;;;;;8.71;56.11;100574.16;5038888;28;19916;-69
2022/04/24 02:21:28;;;;;;;;;;;;;;;8.73;56.11;100577.56;5022719;28;19917;-69
2022/04/24 02:23:54;;;;;;;;;;;;;;;8.67;56.29;100576.13;5038930;28;20016;-69
2022/04/24 02:26:19;;;;;;;;;;;;;;;8.60;56.36;100572.09;5039354;28;20003;-69
2022/04/24 02:28:44;;;;;;;;;;;;;;;8.58;56.50;100568.72;5039387;28;19917;-69
2022/04/24 02:31:10;;;;;;;;;;;;;;;8.56;56.36;100565.31;5036705;28;20905;-69
2022/04/24 02:33:35;;;;;;;;;;;;;;;8.59;56.28;100567.78;5037737;28;20027;-69
2022/04/24 02:36:01;;;;;;;;;;;;;;;8.61;55.99;100565.94;5039017;28;19982;-69
2022/04/24 02:38:26;;;;;;;;;;;;;;;8.68;56.42;100572.56;5038935;28;19962;-69
2022/04/24 02:40:51;;;;;;;;;;;;;;;8.75;56.11;100571.31;5038406;28;19921;-69
2022/04/24 02:43:17;;;;;;;;;;;;;;;8.83;55.93;100566.50;5041405;28;20035;-69
2022/04/24 02:45:42;;;;;;;;;;;;;;;8.83;55.86;100563.03;5042836;28;19963;-69
2022/04/24 02:48:07;;;;;;;;;;;;;;;8.82;55.94;100564.81;5042664;28;19923;-69
2022/04/24 02:50:33;;;;;;;;;;;;;;;8.78;55.99;100552.78;5041989;28;20359;-69
2022/04/24 02:52:58;;;;;;;;;;;;;;;8.73;56.27;100556.59;5040078;28;20629;-69
2022/04/24 02:55:24;;;;;;;;;;;;;;;8.63;56.40;100564.09;5042162;28;19927;-69
2022/04/24 02:57:50;;;;;;;;;;;;;;;8.61;56.59;100560.69;5024437;28;19916;-69
2022/04/24 03:00:22;;;;;;;;;;;;;;;8.57;56.31;100553.91;5041663;28;19917;-69
2022/04/24 03:02:47;;;;;;;;;;;;;;;8.54;56.48;100557.53;5044527;28;19920;-69
2022/04/24 03:05:14;;;;;;;;;;;;;;;8.59;56.25;100552.06;5040058;28;20343;-70
2022/04/24 03:07:40;;;;;;;;;;;;;;;8.59;56.71;100552.06;5040435;28;19927;-70
2022/04/24 03:10:08;;;;;;;;;;;;;;;8.49;56.71;100547.28;5043466;28;19921;-69
2022/04/24 03:12:34;;;;;;;;;;;;;;;8.40;57.09;100547.72;5041604;28;19947;-70
2022/04/24 03:14:59;;;;;;;;;;;;;;;8.37;56.84;100548.75;5040041;28;19929;-69
2022/04/24 03:17:24;;;;;;;;;;;;;;;8.34;57.02;100542.81;5039335;28;20278;-69
2022/04/24 03:19:49;;;;;;;;;;;;;;;8.34;56.76;100550.69;5038422;28;20011;-69
2022/04/24 03:22:15;;;;;;;;;;;;;;;8.37;56.90;100543.50;5043969;28;19922;-69
2022/04/24 03:24:40;;;;;;;;;;;;;;;8.41;56.97;100536.31;5042802;28;19924;-69
2022/04/24 03:27:05;;;;;;;;;;;;;;;8.40;56.69;100537.22;5029876;28;20017;-69
2022/04/24 03:29:31;;;;;;;;;;;;;;;8.41;56.83;100532.84;5042987;28;20348;-69
2022/04/24 03:31:56;;;;;;;;;;;;;;;8.38;56.79;100533.88;5041765;28;19964;-69
2022/04/24 03:34:21;;;;;;;;;;;;;;;8.29;56.76;100535.19;5045151;28;19917;-69
2022/04/24 03:36:46;;;;;;;;;;;;;;;8.18;57.62;100532.25;5041191;28;20011;-69
2022/04/24 03:39:12;;;;;;;;;;;;;;;8.12;57.76;100532.59;5042948;28;19917;-69
2022/04/24 03:41:37;;;;;;;;;;;;;;;8.03;57.71;100534.72;5041234;28;19921;-70
2022/04/24 03:44:03;;;;;;;;;;;;;;;8.04;58.13;100530.34;5040859;28;19920;-69
2022/04/24 03:46:28;;;;;;;;;;;;;;;8.03;57.67;100526.03;5040160;28;19920;-71
2022/04/24 03:48:53;;;;;;;;;;;;;;;8.01;57.61;100528.75;5042615;28;20396;-69
2022/04/24 03:51:18;;;;;;;;;;;;;;;8.07;57.75;100530.19;5040088;28;20003;-70
2022/04/24 03:53:44;;;;;;;;;;;;;;;8.19;57.48;100526.94;5042407;28;20007;-70
2022/04/24 03:56:09;;;;;;;;;;;;;;;8.18;57.42;100522.63;5038365;28;20464;-70
2022/04/24 03:58:34;;;;;;;;;;;;;;;8.15;57.63;100521.94;5042095;28;20403;-69
2022/04/24 04:01:00;;;;;;;;;;;;;;;8.08;57.89;100522.25;5022031;28;19921;-69
2022/04/24 04:03:26;;;;;;;;;;;;;;;8.13;57.53;100513.31;5038258;28;19920;-69
2022/04/24 04:05:51;;;;;;;;;;;;;;;8.17;57.39;100510.44;5039346;28;20403;-70
2022/04/24 04:08:17;;;;;;;;;;;;;;;8.17;57.67;100513.06;5041022;28;20489;-69
2022/04/24 04:10:42;;;;;;;;;;;;;;;8.16;57.72;100514.00;5023039;28;20008;-70
2022/04/24 04:13:07;;;;;;;;;;;;;;;8.09;57.97;100515.25;5024033;28;19921;-69
2022/04/24 04:15:33;;;;;;;;;;;;;;;8.05;57.78;100519.78;5037434;28;19924;-69
2022/04/24 04:17:58;;;;;;;;;;;;;;;8.08;57.85;100510.94;5040587;28;20289;-69
2022/04/24 04:20:23;;;;;;;;;;;;;;;8.14;57.88;100515.00;5041236;28;20278;-69
2022/04/24 04:22:52;;;;;;;;;;;;;;;8.19;57.98;100513.84;5025780;28;19929;-69
2022/04/24 04:25:21;;;;;;;;;;;;;;;8.23;57.77;100518.00;5041797;28;19927;-69
2022/04/24 04:27:47;;;;;;;;;;;;;;;8.27;57.81;100523.06;5041276;28;23086;-70
2022/04/24 04:30:13;;;;;;;;;;;;;;;8.23;57.61;100520.63;5038354;28;19913;-70
2022/04/24 04:32:38;;;;;;;;;;;;;;;8.30;57.79;100525.53;5039336;28;19959;-70
2022/04/24 04:35:05;;;;;;;;;;;;;;;8.42;57.46;100514.41;5041079;28;19917;-70
2022/04/24 04:37:31;;;;;;;;;;;;;;;8.54;57.69;100519.06;5022887;28;19913;-70
2022/04/24 04:39:57;;;;;;;;;;;;;;;8.66;57.44;100519.34;5040589;28;20288;-70
2022/04/24 04:42:22;;;;;;;;;;;;;;;8.74;57.12;100526.78;5040890;28;19996;-69
2022/04/24 04:44:47;;;;;;;;;;;;;;;8.81;57.17;100526.38;5037480;28;19921;-69
2022/04/24 04:47:13;;;;;;;;;;;;;;;8.85;56.81;100527.91;5039361;28;19928;-70
2022/04/24 04:49:38;;;;;;;;;;;;;;;8.88;56.55;100532.16;5040230;28;20373;-69
2022/04/24 04:52:03;;;;;;;;;;;;;;;8.80;57.00;100521.19;5026058;28;19925;-70
2022/04/24 04:54:29;;;;;;;;;;;;;;;8.65;57.75;100515.00;5041379;28;19924;-70
2022/04/24 04:56:54;;;;;;;;;;;;;;;8.47;57.81;100512.41;5039104;28;20122;-70
2022/04/24 04:59:19;;;;;;;;;;;;;;;8.42;58.35;100516.19;5039224;28;19925;-70
2022/04/24 05:01:45;;;;;;;;;;;;;;;8.37;58.40;100516.44;5038833;28;19960;-69
2022/04/24 05:04:10;;;;;;;;;;;;;;;8.36;58.79;100517.38;5038541;28;19966;-70
2022/04/24 05:06:37;;;;;;;;;;;;;;;8.35;58.54;100519.13;5039223;28;19920;-69
2022/04/24 05:09:03;;;;;;;;;;;;;;;8.38;58.82;100523.38;5039077;28;20365;-70
2022/04/24 05:11:28;;;;;;;;;;;;;;;8.43;58.63;100523.97;5038992;28;19925;-69
2022/04/24 05:13:53;;;;;;;;;;;;;;;8.50;58.35;100524.53;5038440;28;19924;-69
2022/04/24 05:16:19;;;;;;;;;;;;;;;8.52;58.36;100520.91;5038510;28;19925;-69
2022/04/24 05:18:44;;;;;;;;;;;;;;;8.53;58.38;100521.75;5038304;28;19916;-69
2022/04/24 05:21:09;;;;;;;;;;;;;;;8.53;58.52;100527.88;5037961;28;19925;-70
2022/04/24 05:23:35;;;;;;;;;;;;;;;8.53;58.51;100530.47;5039774;28;19928;-70
2022/04/24 05:26:00;;;;;;;;;;;;;;;8.55;58.40;100530.38;5040949;28;19920;-69
2022/04/24 05:28:25;;;;;;;;;;;;;;;8.63;58.50;100530.81;5036137;28;19936;-70
2022/04/24 05:30:51;;;;;;;;;;;;;;;8.72;58.36;100532.09;5039485;28;20319;-70
2022/04/24 05:33:17;;;;;;;;;;;;;;;8.77;58.22;100534.50;5039487;28;19925;-69
2022/04/24 05:35:43;;;;;;;;;;;;;;;8.80;58.12;100529.94;5039724;28;19917;-70
2022/04/24 05:38:08;;;;;;;;;;;;;;;8.78;58.33;100534.41;5038980;28;19916;-70
2022/04/24 05:40:33;;;;;;;;;;;;;;;8.76;58.48;100531.03;5038041;28;19920;-69
2022/04/24 05:42:59;;;;;;;;;;;;;;;8.78;58.35;100528.31;5039739;28;20276;-70
2022/04/24 05:45:27;;;;;;;;;;;;;;;8.81;58.66;100533.41;5038355;28;19917;-69
2022/04/24 05:47:54;;;;;;;;;;;;;;;8.82;58.65;100529.84;5036602;28;20051;-70
2022/04/24 05:50:19;;;;;;;;;;;;;;;8.84;58.49;100535.84;5034758;28;20898;-70
2022/04/24 05:52:44;;;;;;;;;;;;;;;8.89;58.11;100525.97;5028214;28;19924;-70
2022/04/24 05:55:10;;;;;;;;;;;;;;;8.85;59.04;100533.13;5038146;28;20407;-70
2022/04/24 05:57:36;;;;;;;;;;;;;;;8.85;58.52;100525.28;5035439;28;20317;-69
2022/04/24 06:00:03;;;;;;;;;;;;;;;8.88;58.54;100526.03;5024524;28;20433;-70
2022/04/24 06:02:28;;;;;;;;;;;;;;;8.90;58.13;100530.28;5019381;28;20358;-70
2022/04/24 06:04:54;;;;;;;;;;;;;;;8.94;58.35;100530.97;5038221;28;20396;-70
2022/04/24 06:07:19;;;;;;;;;;;;;;;8.93;58.34;100527.47;5035833;28;19974;-69
2022/04/24 06:09:45;;;;;;;;;;;;;;;9.00;58.18;100520.13;5019946;28;19939;-70
2022/04/24 06:12:10;;;;;;;;;;;;;;;9.05;58.08;100531.22;5038939;28;20358;-70
2022/04/24 06:14:35;;;;;;;;;;;;;;;9.06;58.23;100525.03;5041162;28;19924;-69
2022/04/24 06:17:01;;;;;;;;;;;;;;;9.14;58.12;100533.34;5041345;28;19928;-69
2022/04/24 06:19:27;;;;;;;;;;;;;;;9.20;57.62;100526.06;5039245;28;19925;-69
2022/04/24 06:21:52;;;;;;;;;;;;;;;9.23;57.85;100525.88;5038643;28;20070;-70
2022/04/24 06:24:17;;;;;;;;;;;;;;;9.21;58.00;100525.13;5041443;28;19920;-69
2022/04/24 06:26:44;;;;;;;;;;;;;;;9.21;57.77;100533.00;5024302;28;20383;-70
2022/04/24 06:29:10;;;;;;;;;;;;;;;9.22;58.00;100532.06;5041317;28;20039;-69
2022/04/24 06:31:35;;;;;;;;;;;;;;;9.26;57.67;100528.34;5042348;28;20050;-69
2022/04/24 06:34:00;;;;;;;;;;;;;;;9.29;57.73;100529.03;5040729;28;19920;-70
2022/04/24 06:36:25;;;;;;;;;;;;;;;9.34;57.83;100526.13;5040143;28;19916;-69
2022/04/24 06:38:51;;;;;;;;;;;;;;;9.35;57.71;100522.56;5042166;28;20055;-69
2022/04/24 06:41:16;;;;;;;;;;;;;;;9.42;57.57;100518.69;5036416;28;19924;-69
2022/04/24 06:43:41;;;;;;;;;;;;;;;9.51;57.61;100534.84;5024582;28;19917;-69
2022/04/24 06:46:07;;;;;;;;;;;;;;;9.57;57.23;100529.25;5041281;28;19916;-69
2022/04/24 06:48:32;;;;;;;;;;;;;;;9.56;57.37;100525.75;5024166;28;20412;-69
2022/04/24 06:50:57;;;;;;;;;;;;;;;9.53;57.40;100532.97;5035000;28;20370;-69
2022/04/24 06:53:23;;;;;;;;;;;;;;;9.51;57.54;100524.34;5037744;28;19925;-69
2022/04/24 06:55:49;;;;;;;;;;;;;;;9.57;57.45;100518.75;5039036;28;19917;-68
2022/04/24 06:58:15;;;;;;;;;;;;;;;9.58;57.70;100520.44;5040963;28;19999;-69
2022/04/24 07:00:42;;;;;;;;;;;;;;;9.59;57.45;100516.88;5040535;28;19920;-69
2022/04/24 07:03:08;;;;;;;;;;;;;;;9.66;57.52;100520.84;5041380;28;20043;-69
2022/04/24 07:05:33;;;;;;;;;;;;;;;9.73;57.15;100514.31;5041838;28;19992;-68
2022/04/24 07:07:59;;;;;;;;;;;;;;;9.83;57.03;100517.22;5041486;28;20020;-69
2022/04/24 07:10:24;;;;;;;;;;;;;;;9.89;57.22;100509.00;5040973;28;19917;-68
2022/04/24 07:12:50;;;;;;;;;;;;;;;9.97;56.92;100513.78;5040315;28;19932;-69
2022/04/24 07:15:17;;;;;;;;;;;;;;;10.01;56.86;100510.06;5027952;28;19979;-68
2022/04/24 07:17:43;;;;;;;;;;;;;;;9.99;56.80;100506.66;5043440;28;19928;-69
2022/04/24 07:20:09;;;;;;;;;;;;;;;9.98;56.78;100506.78;5041888;28;19912;-69
2022/04/24 07:22:47;;;;;;;;;;;;;;;10.01;56.75;100507.44;5038549;28;19932;-69
2022/04/24 07:25:13;;;;;;;;;;;;;;;10.12;56.56;100500.69;5037815;28;20545;-67
2022/04/24 07:27:39;;;;;;;;;;;;;;;10.25;56.42;100511.31;5041353;28;20331;-69
2022/04/24 07:30:04;;;;;;;;;;;;;;;10.36;56.25;100508.88;5043778;28;20369;-69
2022/04/24 07:32:40;;;;;;;;;;;;;;;10.51;55.80;100499.25;5039792;28;19965;-70
2022/04/24 07:35:05;;;;;;;;;;;;;;;10.64;55.67;100497.56;5043975;28;19912;-72
2022/04/24 07:37:34;;;;;;;;;;;;;;;10.75;55.37;100498.66;5043602;28;19974;-72
2022/04/24 07:39:59;;;;;;;;;;;;;;;10.83;55.19;100497.25;5039675;28;19924;-73
2022/04/24 07:42:24;;;;;;;;;;;;;;;10.84;54.81;100495.44;5043052;28;19917;-73
2022/04/24 07:44:51;;;;;;;;;;;;;;;10.82;54.94;100489.41;5030905;28;19960;-73
2022/04/24 07:47:16;;;;;;;;;;;;;;;10.83;54.80;100489.34;5037316;28;20015;-73
2022/04/24 07:49:41;;;;;;;;;;;;;;;10.90;54.83;100489.81;5040567;28;20373;-72
2022/04/24 07:52:07;;;;;;;;;;;;;;;11.02;54.78;100487.31;5039932;28;20027;-73
2022/04/24 07:54:32;;;;;;;;;;;;;;;11.10;54.31;100487.69;5038691;28;20046;-69
2022/04/24 07:56:57;;;;;;;;;;;;;;;11.12;54.03;100481.38;5041902;28;19931;-70
2022/04/24 07:59:23;;;;;;;;;;;;;;;11.15;53.98;100476.88;5042040;28;20373;-70
2022/04/24 08:01:51;;;;;;;;;;;;;;;11.19;54.07;100473.94;5023086;28;20369;-69
2022/04/24 08:04:16;;;;;;;;;;;;;;;11.26;53.73;100464.69;5040528;28;20365;-70
2022/04/24 08:06:42;;;;;;;;;;;;;;;11.29;53.16;100469.75;5039955;28;19920;-73
2022/04/24 08:09:07;;;;;;;;;;;;;;;11.34;53.34;100473.88;5041296;28;20650;-72
2022/04/24 08:11:32;;;;;;;;;;;;;;;11.40;53.03;100476.13;5040727;28;20016;-72
2022/04/24 08:13:58;;;;;;;;;;;;;;;11.45;53.13;100474.00;5038457;28;19920;-72
2022/04/24 08:16:26;;;;;;;;;;;;;;;11.52;53.03;100464.78;5039531;28;19940;-73
2022/04/24 08:18:51;;;;;;;;;;;;;;;11.56;52.58;100466.25;5021077;28;19927;-73
2022/04/24 08:21:20;;;;;;;;;;;;;;;11.61;52.38;100457.19;5019788;28;19916;-72
2022/04/24 08:23:46;;;;;;;;;;;;;;;11.63;52.13;100456.16;5038427;28;20257;-73
2022/04/24 08:26:11;;;;;;;;;;;;;;;11.69;51.92;100457.53;5036928;28;19927;-75
2022/04/24 08:28:37;;;;;;;;;;;;;;;11.72;52.09;100449.44;5040140;28;19921;-74
2022/04/24 08:31:02;;;;;;;;;;;;;;;11.77;51.85;100447.31;5038540;28;20003;-72
2022/04/24 08:33:28;;;;;;;;;;;;;;;11.84;51.94;100447.72;5035344;28;19921;-71
2022/04/24 08:35:53;;;;;;;;;;;;;;;11.93;51.66;100441.84;5039242;28;19924;-71
2022/04/24 08:38:18;;;;;;;;;;;;;;;11.97;51.35;100448.56;5020503;28;19925;-72
2022/04/24 08:40:44;;;;;;;;;;;;;;;12.03;51.53;100439.44;5039796;28;19917;-71
2022/04/24 08:43:12;;;;;;;;;;;;;;;12.10;51.35;100442.53;5040069;28;19927;-71
2022/04/24 08:45:39;;;;;;;;;;;;;;;12.16;51.36;100439.44;5038189;28;19917;-71
2022/04/24 08:48:05;;;;;;;;;;;;;;;12.18;51.22;100440.19;5029905;28;19943;-71
2022/04/24 08:50:31;;;;;;;;;;;;;;;12.23;51.11;100442.50;5021582;28;19925;-74
2022/04/24 08:53:01;;;;;;;;;;;;;;;12.27;50.83;100438.69;5039724;28;19928;-73
2022/04/24 08:55:28;;;;;;;;;;;;;;;12.31;50.71;100443.66;5039223;28;20320;-72
2022/04/24 08:57:53;;;;;;;;;;;;;;;12.32;50.48;100441.88;5040910;28;19927;-72
2022/04/24 09:00:18;;;;;;;;;;;;;;;12.36;50.42;100438.03;5021457;28;19917;-72
2022/04/24 09:02:44;;;;;;;;;;;;;;;12.38;50.11;100436.16;5024992;28;19925;-72
2022/04/24 09:05:10;;;;;;;;;;;;;;;12.42;50.16;100432.34;5037209;28;20287;-72
2022/04/24 09:07:36;;;;;;;;;;;;;;;12.47;50.17;100435.50;5037306;28;19924;-72
2022/04/24 09:10:07;;;;;;;;;;;;;;;12.57;49.96;100427.75;5028145;28;19931;-72
2022/04/24 09:12:33;;;;;;;;;;;;;;;12.65;48.71;100425.44;5037263;28;20336;-71
2022/04/24 09:14:59;;;;;;;;;;;;;;;12.74;48.93;100429.22;5037689;28;19917;-73
2022/04/24 09:17:29;;;;;;;;;;;;;;;12.83;49.21;100424.22;5038390;28;20293;-72
2022/04/24 09:19:55;;;;;;;;;;;;;;;12.92;48.87;100418.28;5040272;28;19913;-72
2022/04/24 09:22:22;;;;;;;;;;;;;;;13.02;49.05;100424.56;5037760;28;19931;-73
2022/04/24 09:24:52;;;;;;;;;;;;;;;13.09;47.89;100420.50;5034554;28;20003;-72
2022/04/24 09:27:32;;;;;;;;;;;;;;;13.19;47.06;100417.19;5029840;28;20259;-73
2022/04/24 09:29:59;;;;;;;;;;;;;;;13.28;47.16;100424.44;5035181;28;19939;-73
2022/04/24 09:32:27;;;;;;;;;;;;;;;13.40;46.72;100423.53;5034034;28;20024;-73
2022/04/24 09:34:53;;;;;;;;;;;;;;;13.49;45.59;100418.53;5031571;28;19946;-74
2022/04/24 09:37:19;;;;;;;;;;;;;;;13.54;45.75;100413.72;5030899;28;20357;-73
2022/04/24 09:39:44;;;;;;;;;;;;;;;13.59;45.99;100414.22;5035242;28;19921;-73
2022/04/24 09:42:11;;;;;;;;;;;;;;;13.62;46.28;100416.66;5039363;28;19917;-73
2022/04/24 09:44:39;;;;;;;;;;;;;;;13.67;46.02;100417.16;5037711;28;19997;-72
2022/04/24 09:47:05;;;;;;;;;;;;;;;13.71;44.92;100418.59;5039226;28;19935;-73
2022/04/24 09:49:42;;;;;;;;;;;;;;;13.74;45.71;100417.53;5042316;28;19921;-73
2022/04/24 09:52:07;;;;;;;;;;;;;;;13.77;45.73;100419.09;5038488;28;19929;-73
2022/04/24 09:54:32;;;;;;;;;;;;;;;13.79;45.55;100423.28;5035713;28;261102;-73
2022/04/24 09:56:58;;;;;;;;;;;;;;;13.84;45.27;100418.50;5044265;28;19928;-73
2022/04/24 09:59:25;;;;;;;;;;;;;;;13.89;44.95;100412.84;5043736;28;19920;-73
2022/04/24 10:01:50;;;;;;;;;;;;;;;13.94;45.21;100416.00;5044086;28;19997;-73
2022/04/24 10:04:15;;;;;;;;;;;;;;;14.00;44.87;100410.22;5041896;28;20373;-73
2022/04/24 10:06:42;;;;;;;;;;;;;;;14.07;44.88;100413.22;5041468;28;19912;-73
2022/04/24 10:09:09;;;;;;;;;;;;;;;14.14;44.59;100416.25;5034917;28;20469;-72
2022/04/24 10:11:34;;;;;;;;;;;;;;;14.21;44.69;100417.44;5043080;28;19920;-73
2022/04/24 10:14:06;;;;;;;;;;;;;;;14.25;44.23;100413.59;5026360;28;20322;-72
2022/04/24 10:16:31;;;;;;;;;;;;;;;14.30;44.22;100421.19;5040360;28;19977;-72
2022/04/24 10:19:04;;;;;;;;;;;;;;;14.34;43.87;100419.97;5039430;28;20360;-73
2022/04/24 10:21:30;;;;;;;;;;;;;;;14.40;44.11;100414.19;5041872;28;19999;-72
2022/04/24 10:24:05;;;;;;;;;;;;;;;14.45;43.92;100414.66;5021751;28;19917;-72
2022/04/24 10:26:31;;;;;;;;;;;;;;;14.51;44.07;100408.03;5042398;28;20275;-73
2022/04/24 10:29:07;;;;;;;;;;;;;;;14.58;43.37;100401.31;5040999;28;19951;-72
2022/04/24 10:31:45;;;;;;;;;;;;;;;14.66;43.48;100400.69;5038350;28;19921;-72
2022/04/24 10:34:13;;;;;;;;;;;;;;;14.74;43.22;100397.44;5037598;28;19912;-71
2022/04/24 10:36:52;;;;;;;;;;;;;;;14.81;43.16;100397.78;5038707;28;19917;-70
2022/04/24 10:39:19;;;;;;;;;;;;;;;14.89;43.06;100392.69;5042083;28;19916;-72
2022/04/24 10:41:53;;;;;;;;;;;;;;;14.97;42.73;100389.44;5040189;28;20370;-66
2022/04/24 10:44:18;;;;;;;;;;;;;;;15.05;42.50;100389.66;5040979;28;20257;-71
2022/04/24 10:46:47;;;;;;;;;;;;;;;15.12;41.67;100388.16;5038729;28;19917;-72
2022/04/24 10:49:13;;;;;;;;;;;;;;;15.14;40.90;100378.28;5041967;28;19939;-73
2022/04/24 10:51:40;;;;;;;;;;;;;;;15.19;41.47;100386.69;5038788;28;19921;-71
2022/04/24 10:54:10;;;;;;;;;;;;;;;15.28;40.39;100374.47;5041088;28;19931;-72
2022/04/24 10:56:36;;;;;;;;;;;;;;;15.38;41.07;100382.50;5041256;28;20377;-74
2022/04/24 10:59:21;;;;;;;;;;;;;;;15.46;41.01;100373.91;5037651;28;20019;-71
2022/04/24 11:01:54;;;;;;;;;;;;;;;15.52;40.31;100371.56;5039370;28;20316;-74
2022/04/24 11:04:21;;;;;;;;;;;;;;;15.62;40.78;100370.78;5033783;28;19928;-74
2022/04/24 11:06:55;;;;;;;;;;;;;;;15.71;40.92;100375.31;5040611;28;19917;-72
2022/04/24 11:09:21;;;;;;;;;;;;;;;15.80;40.90;100374.53;5041892;28;19921;-72
2022/04/24 11:11:53;;;;;;;;;;;;;;;15.86;40.61;100362.59;5025760;28;20316;-72
2022/04/24 11:14:19;;;;;;;;;;;;;;;15.93;40.21;100362.91;5026986;28;20047;-70
2022/04/24 11:16:48;;;;;;;;;;;;;;;15.98;39.64;100361.50;5040129;28;19928;-72
2022/04/24 11:19:20;;;;;;;;;;;;;;;16.05;39.20;100361.81;5038410;28;20391;-73
2022/04/24 11:21:45;;;;;;;;;;;;;;;16.11;39.19;100371.88;5041437;28;19920;-74
2022/04/24 11:24:11;;;;;;;;;;;;;;;16.13;37.96;100363.81;5041418;28;19924;-66
2022/04/24 11:26:36;;;;;;;;;;;;;;;16.18;38.33;100371.38;5040009;28;21052;-67
2022/04/24 11:29:08;;;;;;;;;;;;;;;16.22;38.40;100370.13;5043686;28;19916;-71
2022/04/24 11:31:33;;;;;;;;;;;;;;;16.25;37.90;100368.03;5034675;28;19925;-71
2022/04/24 11:34:00;;;;;;;;;;;;;;;16.29;38.20;100369.44;5036919;28;19921;-72
2022/04/24 11:36:35;;;;;;;;;;;;;;;16.30;37.99;100365.81;5039975;28;19916;-70
2022/04/24 11:39:01;;;;;;;;;;;;;;;16.35;37.80;100361.91;5041764;28;19932;-71
2022/04/24 11:41:28;;;;;;;;;;;;;;;16.37;37.45;100352.84;5022822;28;20401;-68
2022/04/24 11:43:59;;;;;;;;;;;;;;;16.40;37.59;100352.59;5040356;28;19917;-70
2022/04/24 11:51:52;;;;;;;;;;;;;;;16.57;36.81;100360.84;5039006;28;20038;-72
2022/04/24 11:54:17;;;;;;;;;;;;;;;16.61;36.54;100354.28;5025030;28;20544;-74
2022/04/24 11:56:48;;;;;;;;;;;;;;;16.66;36.69;100351.19;5044509;28;19917;-72
2022/04/24 11:59:14;;;;;;;;;;;;;;;16.68;35.96;100349.25;5041354;28;19917;-72
2022/04/24 12:01:40;;;;;;;;;;;;;;;16.74;35.49;100349.53;5038222;28;19917;-71
2022/04/24 12:04:06;;;;;;;;;;;;;;;16.79;35.77;100348.28;5037328;28;19932;-68
2022/04/24 12:06:34;;;;;;;;;;;;;;;16.80;35.28;100347.31;5038508;28;20536;-67
2022/04/24 12:09:06;;;;;;;;;;;;;;;16.79;35.07;100342.97;5037283;28;19959;-67
2022/04/24 12:11:32;;;;;;;;;;;;;;;16.81;34.69;100341.03;5037543;28;20284;-66
2022/04/24 12:14:01;;;;;;;;;;;;;;;16.84;34.55;100348.72;5039378;28;20011;-67
2022/04/24 12:16:26;;;;;;;;;;;;;;;16.84;34.98;100336.25;5037447;28;20374;-67
2022/04/24 12:18:56;;;;;;;;;;;;;;;16.87;34.35;100340.44;5041362;28;19920;-67
2022/04/24 12:21:21;;;;;;;;;;;;;;;16.90;35.14;100340.19;5037768;28;19920;-67
2022/04/24 12:23:53;;;;;;;;;;;;;;;16.96;35.21;100336.16;5040205;28;19978;-66
2022/04/24 12:26:18;;;;;;;;;;;;;;;17.02;35.33;100333.75;5040920;28;20265;-65
2022/04/24 12:28:44;;;;;;;;;;;;;;;17.06;35.17;100324.53;5039175;28;19924;-67
2022/04/24 12:31:23;;;;;;;;;;;;;;;17.12;35.23;100323.13;5035434;28;19956;-65
2022/04/24 12:33:49;;;;;;;;;;;;;;;17.20;35.12;100319.75;5022527;28;20381;-66
2022/04/24 12:36:15;;;;;;;;;;;;;;;17.27;35.07;100318.22;5039811;28;20005;-66
2022/04/24 12:38:41;;;;;;;;;;;;;;;17.32;34.78;100317.78;5041022;28;19912;-65
2022/04/24 12:41:10;;;;;;;;;;;;;;;17.35;34.90;100317.50;5040269;28;19923;-66
2022/04/24 12:43:36;;;;;;;;;;;;;;;17.34;34.69;100311.34;5037139;28;19920;-66